METAR Data

Data at: 2214 UTC 01 Dec 2021

METAR for:KLEW (Auburn-Lewiston Muni, ME, US)
Text:KLEW 012156Z AUTO 32003KT 10SM CLR 02/M04 A3008 RMK AO2 SLPNO T00171039 FZRANO
Temperature: 1.7°C ( 35°F)
Dewpoint: -3.9°C ( 25°F) [RH = 66%]
Pressure (altimeter):30.08 inches Hg (1018.7 mb)
Winds:from the NW (320 degrees) at 3 MPH (3 knots; 1.5 m/s)
Visibility:10 or more sm (16+ km)
Ceiling:at least 12,000 feet AGL
Clouds:sky clear below 12,000 feet AGL
QC Flag:automated observation with no human augmentation